createdAt,value
2018-01-26T00:00:25.656Z,5.37
2018-01-26T00:02:53.777Z,4.10
2018-01-26T00:05:21.887Z,5.28
2018-01-26T00:07:50.373Z,4.03
2018-01-26T00:10:18.491Z,3.78
2018-01-26T00:12:46.605Z,5.05
2018-01-26T00:15:15.496Z,4.18
2018-01-26T00:17:44.367Z,6.35
2018-01-26T00:20:12.493Z,4.20
2018-01-26T00:22:40.604Z,4.12
2018-01-26T00:25:08.726Z,4.00
2018-01-26T00:27:36.851Z,4.03
2018-01-26T00:30:04.964Z,4.20
2018-01-26T00:32:33.104Z,4.28
2018-01-26T00:35:01.230Z,14.07
2018-01-26T00:37:30.119Z,4.07
2018-01-26T00:39:58.248Z,3.50
2018-01-26T00:42:26.374Z,3.47
2018-01-26T00:44:54.511Z,4.50
2018-01-26T00:47:23.399Z,4.22
2018-01-26T00:49:52.296Z,4.20
2018-01-26T00:52:20.427Z,5.60
2018-01-26T00:54:48.547Z,5.68
2018-01-26T00:57:16.688Z,5.85
2018-01-26T00:59:44.833Z,4.15
2018-01-26T01:02:12.961Z,4.62
2018-01-26T01:04:41.848Z,3.72
2018-01-26T01:07:10.765Z,4.18
2018-01-26T01:09:38.894Z,4.53
2018-01-26T01:12:07.015Z,4.75
2018-01-26T01:14:35.160Z,3.97
2018-01-26T01:17:04.049Z,4.78
2018-01-26T01:19:32.941Z,4.95
2018-01-26T01:22:01.826Z,5.40
2018-01-26T01:24:30.722Z,4.07
2018-01-26T01:26:59.618Z,4.60
2018-01-26T01:29:27.756Z,4.20
2018-01-26T01:31:55.882Z,4.95
2018-01-26T01:34:23.993Z,4.50
2018-01-26T01:36:52.113Z,4.10
2018-01-26T01:39:21.006Z,4.07
2018-01-26T01:41:50.223Z,3.42
2018-01-26T01:44:18.336Z,4.72
2018-01-26T01:46:46.442Z,3.62
2018-01-26T01:49:16.312Z,4.20
2018-01-26T01:51:44.433Z,4.30
2018-01-26T01:54:13.332Z,5.18
2018-01-26T01:56:41.455Z,4.85
2018-01-26T01:59:09.611Z,4.80
2018-01-26T02:01:37.734Z,4.75
2018-01-26T02:04:06.623Z,6.50
2018-01-26T02:06:35.527Z,6.60
2018-01-26T02:09:04.412Z,8.63
2018-01-26T02:11:33.300Z,4.70
2018-01-26T02:14:02.194Z,4.15
2018-01-26T02:16:31.081Z,3.83
2018-01-26T02:18:59.967Z,5.28
2018-01-26T02:21:28.863Z,5.12
2018-01-26T02:23:57.772Z,4.25
2018-01-26T02:26:25.883Z,4.78
2018-01-26T02:28:54.025Z,4.10
2018-01-26T02:31:22.143Z,4.65
2018-01-26T02:33:50.265Z,8.75
2018-01-26T02:36:18.390Z,4.87
2018-01-26T02:38:47.302Z,4.60
2018-01-26T02:41:15.440Z,4.55
2018-01-26T02:43:43.554Z,4.12
2018-01-26T02:46:12.443Z,6.15
2018-01-26T02:48:41.336Z,3.50
2018-01-26T02:51:10.220Z,3.85
2018-01-26T02:53:38.372Z,4.45
2018-01-26T02:56:06.486Z,3.25
2018-01-26T02:58:35.381Z,4.90
2018-01-26T03:01:04.263Z,4.07
2018-01-26T03:03:33.175Z,3.30
2018-01-26T03:06:01.315Z,3.72
2018-01-26T03:08:30.197Z,3.42
2018-01-26T03:10:58.315Z,3.83
2018-01-26T03:13:26.470Z,3.95
2018-01-26T03:15:55.352Z,3.20
2018-01-26T03:18:24.585Z,4.50
2018-01-26T03:20:52.700Z,3.55
2018-01-26T03:23:20.822Z,3.10
2018-01-26T03:25:48.939Z,3.50
2018-01-26T03:28:17.073Z,5.50
2018-01-26T03:30:45.212Z,5.53
2018-01-26T03:33:14.077Z,4.03
2018-01-26T03:35:42.197Z,3.62
2018-01-26T03:38:10.327Z,4.05
2018-01-26T03:40:38.436Z,3.03
2018-01-26T03:43:07.687Z,2.50
2018-01-26T03:45:35.801Z,4.22
2018-01-26T03:48:04.678Z,3.40
2018-01-26T03:50:32.795Z,3.97
2018-01-26T03:53:00.911Z,3.87
2018-01-26T03:55:29.051Z,3.40
2018-01-26T03:57:57.171Z,3.60
2018-01-26T04:00:26.065Z,3.30
2018-01-26T04:02:54.207Z,3.00
2018-01-26T04:05:22.316Z,3.62
2018-01-26T04:07:51.222Z,4.70
2018-01-26T04:10:20.099Z,3.83
2018-01-26T04:12:49.033Z,4.12
2018-01-26T04:15:17.190Z,4.00
2018-01-26T04:17:45.313Z,4.03
2018-01-26T04:20:13.450Z,4.62
2018-01-26T04:22:41.591Z,4.43
2018-01-26T04:25:10.475Z,4.35
2018-01-26T04:27:39.379Z,5.35
2018-01-26T04:30:08.265Z,4.47
2018-01-26T04:32:37.164Z,5.35
2018-01-26T04:35:05.282Z,4.85
2018-01-26T04:37:33.412Z,4.47
2018-01-26T04:40:02.312Z,5.03
2018-01-26T04:42:30.445Z,5.32
2018-01-26T04:44:58.574Z,4.78
2018-01-26T04:47:26.713Z,4.97
2018-01-26T04:49:55.589Z,4.05
2018-01-26T04:52:24.501Z,4.82
2018-01-26T04:54:53.390Z,5.10
2018-01-26T04:57:22.313Z,4.47
2018-01-26T04:59:50.446Z,5.45
2018-01-26T05:02:19.365Z,5.62
2018-01-26T05:04:48.252Z,8.27
2018-01-26T05:07:16.380Z,5.90
2018-01-26T05:09:44.514Z,5.75
2018-01-26T05:12:12.623Z,5.60
2018-01-26T05:14:40.752Z,5.53
2018-01-26T05:17:08.875Z,6.10
2018-01-26T05:19:37.002Z,5.95
2018-01-26T05:22:05.137Z,6.53
2018-01-26T05:24:34.036Z,5.80
2018-01-26T05:27:02.919Z,6.80
2018-01-26T05:29:31.820Z,6.03
2018-01-26T05:32:00.701Z,5.82
2018-01-26T05:34:29.599Z,5.25
2018-01-26T05:36:58.512Z,5.57
2018-01-26T05:39:26.738Z,6.07
2018-01-26T05:41:54.872Z,6.15
2018-01-26T05:44:23.760Z,6.00
2018-01-26T05:46:51.906Z,5.62
2018-01-26T05:49:20.789Z,5.72
2018-01-26T05:51:49.671Z,5.90
2018-01-26T05:54:18.567Z,6.22
2018-01-26T05:56:47.444Z,5.70
2018-01-26T05:59:15.598Z,6.28
2018-01-26T06:01:43.703Z,6.40
2018-01-26T06:04:12.598Z,6.50
2018-01-26T06:06:41.475Z,5.78
2018-01-26T06:09:09.616Z,6.22
2018-01-26T06:11:37.771Z,7.18
2018-01-26T06:14:05.881Z,7.03
2018-01-26T06:16:34.034Z,6.35
2018-01-26T06:19:02.176Z,6.40
2018-01-26T06:21:30.294Z,6.80
2018-01-26T06:23:58.443Z,7.28
2018-01-26T06:26:26.562Z,6.93
2018-01-26T06:28:55.431Z,5.97
2018-01-26T06:31:23.615Z,6.68
2018-01-26T06:33:51.745Z,6.22
2018-01-26T06:36:20.234Z,7.07
2018-01-26T06:38:48.355Z,8.88
2018-01-26T06:41:16.482Z,11.73
2018-01-26T06:43:44.635Z,10.23
2018-01-26T06:46:12.768Z,7.85
2018-01-26T06:48:41.189Z,7.78
2018-01-26T06:51:09.302Z,7.00
2018-01-26T06:53:37.438Z,6.12
2018-01-26T06:56:05.575Z,6.65
2018-01-26T06:58:33.692Z,8.13
2018-01-26T07:01:01.825Z,7.87
2018-01-26T07:03:29.948Z,9.55
2018-01-26T07:05:58.836Z,7.10
2018-01-26T07:08:26.990Z,7.90
2018-01-26T07:10:55.869Z,6.90
2018-01-26T07:13:24.781Z,7.87
2018-01-26T07:15:52.898Z,8.95
2018-01-26T07:18:21.037Z,8.43
2018-01-26T07:20:50.005Z,6.80
2018-01-26T07:23:18.895Z,7.40
2018-01-26T07:25:47.396Z,7.00
2018-01-26T07:28:15.541Z,7.37
2018-01-26T07:30:44.408Z,6.45
2018-01-26T07:33:12.531Z,5.97
2018-01-26T07:35:40.639Z,7.62
2018-01-26T07:38:08.774Z,9.15
2018-01-26T07:40:36.879Z,7.57
2018-01-26T07:43:05.023Z,6.68
2018-01-26T07:45:33.145Z,6.72
2018-01-26T07:48:01.252Z,6.10
2018-01-26T07:50:29.390Z,6.78
2018-01-26T07:52:57.503Z,6.70
2018-01-26T07:55:25.631Z,6.93
2018-01-26T07:57:53.768Z,5.07
2018-01-26T08:00:21.883Z,5.50
2018-01-26T08:02:49.994Z,4.80
2018-01-26T08:05:18.181Z,4.37
2018-01-26T08:07:46.307Z,5.78
2018-01-26T08:10:14.469Z,5.90
2018-01-26T08:12:42.835Z,5.65
2018-01-26T08:15:10.951Z,5.93
2018-01-26T08:17:39.831Z,6.35
2018-01-26T08:20:07.964Z,7.90
2018-01-26T08:22:36.109Z,7.15
2018-01-26T08:25:04.243Z,5.90
2018-01-26T08:27:32.358Z,8.07
2018-01-26T08:30:00.485Z,6.22
2018-01-26T08:32:28.587Z,6.20
2018-01-26T08:34:58.140Z,8.38
2018-01-26T08:37:26.297Z,6.68
2018-01-26T08:39:54.454Z,6.93
2018-01-26T08:42:22.575Z,5.85
2018-01-26T08:44:50.686Z,8.57
2018-01-26T08:47:19.712Z,8.88
2018-01-26T08:49:47.852Z,6.47
2018-01-26T08:52:16.715Z,7.28
2018-01-26T08:54:44.845Z,6.70
2018-01-26T08:57:12.968Z,6.80
2018-01-26T08:59:41.103Z,7.10
2018-01-26T09:02:09.224Z,7.05
2018-01-26T09:04:38.220Z,7.18
2018-01-26T09:07:07.124Z,7.00
2018-01-26T09:09:35.239Z,7.72
2018-01-26T09:12:03.378Z,6.97
2018-01-26T09:14:31.491Z,8.52
2018-01-26T09:16:59.619Z,6.95
2018-01-26T09:19:27.767Z,8.02
2018-01-26T09:21:55.903Z,7.20
2018-01-26T09:24:24.033Z,8.00
2018-01-26T09:26:52.917Z,6.20
2018-01-26T09:29:21.802Z,8.15
2018-01-26T09:31:49.918Z,6.93
2018-01-26T09:34:18.059Z,7.22
2018-01-26T09:36:47.075Z,7.40
2018-01-26T09:39:15.194Z,8.80
2018-01-26T09:41:43.316Z,7.85
2018-01-26T09:44:11.432Z,6.90
2018-01-26T09:46:39.560Z,7.72
2018-01-26T09:49:07.693Z,5.87
2018-01-26T09:51:35.836Z,21.10
2018-01-26T09:54:03.948Z,7.90
2018-01-26T09:56:32.128Z,6.53
2018-01-26T09:59:01.023Z,7.60
2018-01-26T10:01:29.908Z,7.28
2018-01-26T10:03:58.033Z,6.30
2018-01-26T10:06:26.143Z,7.10
2018-01-26T10:08:54.364Z,7.30
2018-01-26T10:11:22.453Z,8.73
2018-01-26T10:13:51.427Z,8.20
2018-01-26T10:16:19.607Z,6.87
2018-01-26T10:18:47.724Z,8.48
2018-01-26T10:21:15.882Z,7.50
2018-01-26T10:23:43.991Z,6.97
2018-01-26T10:26:12.904Z,7.53
2018-01-26T10:28:41.021Z,7.40
2018-01-26T10:31:09.233Z,8.88
2018-01-26T10:33:38.116Z,6.70
2018-01-26T10:36:06.294Z,7.95
2018-01-26T10:38:34.427Z,8.70
2018-01-26T10:41:02.573Z,5.37
2018-01-26T10:43:31.455Z,5.80
2018-01-26T10:45:59.564Z,4.90
2018-01-26T10:48:27.710Z,4.90
2018-01-26T10:50:55.832Z,4.78
2018-01-26T10:53:23.980Z,4.50
2018-01-26T10:55:52.144Z,5.68
2018-01-26T10:58:20.261Z,5.07
2018-01-26T11:00:48.399Z,5.18
2018-01-26T11:03:16.513Z,4.97
2018-01-26T11:05:44.668Z,5.15
2018-01-26T11:08:12.782Z,6.15
2018-01-26T11:10:40.922Z,4.62
2018-01-26T11:13:09.063Z,5.30
2018-01-26T11:15:37.171Z,7.32
2018-01-26T11:18:05.304Z,4.03
2018-01-26T11:20:33.423Z,4.32
2018-01-26T11:23:01.946Z,6.37
2018-01-26T11:25:30.084Z,4.93
2018-01-26T11:27:58.962Z,4.45
2018-01-26T11:30:27.108Z,5.70
2018-01-26T11:32:55.304Z,5.60
2018-01-26T11:35:23.432Z,5.47
2018-01-26T11:37:51.547Z,5.80
2018-01-26T11:40:19.679Z,6.45
2018-01-26T11:42:47.791Z,4.90
2018-01-26T11:45:15.921Z,5.45
2018-01-26T11:47:44.867Z,5.68
2018-01-26T11:50:12.974Z,6.45
2018-01-26T11:52:41.151Z,6.32
2018-01-26T11:55:09.284Z,5.25
2018-01-26T11:57:37.807Z,6.10
2018-01-26T12:00:05.948Z,5.60
2018-01-26T12:02:34.052Z,6.55
2018-01-26T12:05:02.207Z,5.90
2018-01-26T12:07:30.326Z,5.90
2018-01-26T12:09:58.456Z,5.20
2018-01-26T12:12:27.359Z,4.18
2018-01-26T12:14:56.576Z,4.60
2018-01-26T12:17:24.770Z,3.87
2018-01-26T12:19:52.899Z,4.55
2018-01-26T12:22:21.052Z,3.25
2018-01-26T12:24:49.166Z,4.40
2018-01-26T12:27:17.306Z,5.75
2018-01-26T12:29:46.853Z,5.32
2018-01-26T12:32:15.009Z,5.00
2018-01-26T12:34:43.134Z,4.37
2018-01-26T12:37:11.269Z,4.95
2018-01-26T12:39:39.400Z,4.32
2018-01-26T12:42:07.512Z,5.05
2018-01-26T12:44:35.682Z,4.43
2018-01-26T12:47:03.796Z,4.07
2018-01-26T12:49:31.923Z,5.00
2018-01-26T12:52:00.056Z,4.93
2018-01-26T12:54:28.173Z,7.47
2018-01-26T12:56:56.300Z,5.55
2018-01-26T12:59:24.415Z,4.65
2018-01-26T13:01:52.551Z,3.78
2018-01-26T13:04:20.718Z,7.32
2018-01-26T13:06:48.875Z,5.90
2018-01-26T13:09:16.995Z,5.72
2018-01-26T13:11:45.903Z,5.35
2018-01-26T13:14:14.028Z,4.20
2018-01-26T13:16:42.152Z,5.93
2018-01-26T13:19:10.375Z,6.22
2018-01-26T13:21:38.522Z,4.15
2018-01-26T13:24:06.646Z,5.00
2018-01-26T13:26:35.555Z,5.85
2018-01-26T13:29:03.822Z,5.80
2018-01-26T13:31:32.747Z,5.78
2018-01-26T13:34:01.061Z,6.40
2018-01-26T13:36:29.202Z,4.43
2018-01-26T13:38:57.320Z,4.10
2018-01-26T13:41:25.442Z,6.75
2018-01-26T13:43:53.595Z,6.00
2018-01-26T13:46:22.472Z,4.85
2018-01-26T13:48:51.367Z,4.55
2018-01-26T13:51:20.260Z,6.30
2018-01-26T13:53:49.183Z,6.07
2018-01-26T13:56:17.307Z,4.32
2018-01-26T13:58:46.195Z,7.20
2018-01-26T14:01:14.324Z,4.85
2018-01-26T14:03:42.483Z,5.40
2018-01-26T14:06:10.620Z,4.72
2018-01-26T14:08:39.512Z,5.75
2018-01-26T14:11:08.701Z,5.70
2018-01-26T14:13:36.824Z,4.32
2018-01-26T14:16:04.943Z,5.32
2018-01-26T14:18:33.088Z,5.30
2018-01-26T14:21:01.204Z,5.30
2018-01-26T14:23:30.107Z,5.62
2018-01-26T14:25:59.003Z,6.72
2018-01-26T14:28:27.144Z,7.72
2018-01-26T14:30:55.276Z,6.68
2018-01-26T14:33:23.395Z,7.00
2018-01-26T14:35:51.864Z,6.85
2018-01-26T14:38:20.003Z,7.15
2018-01-26T14:40:48.143Z,7.68
2018-01-26T14:43:17.027Z,5.30
2018-01-26T14:45:45.940Z,7.35
2018-01-26T14:48:14.076Z,6.53
2018-01-26T14:50:42.221Z,6.68
2018-01-26T14:53:10.394Z,6.30
2018-01-26T14:55:38.545Z,7.40
2018-01-26T14:58:06.680Z,7.35
2018-01-26T15:00:34.812Z,8.00
2018-01-26T15:03:03.739Z,7.62
2018-01-26T15:05:31.867Z,7.12
2018-01-26T15:08:00.197Z,12.18
2018-01-26T15:10:28.450Z,8.18
2018-01-26T15:12:56.672Z,7.12
2018-01-26T15:15:25.572Z,7.18
2018-01-26T15:17:53.717Z,6.97
2018-01-26T15:20:21.884Z,6.68
2018-01-26T15:22:50.014Z,7.50
2018-01-26T15:25:18.166Z,9.00
2018-01-26T15:27:46.330Z,6.93
2018-01-26T15:30:15.209Z,6.68
2018-01-26T16:16:25.457Z,9.38
2018-01-26T16:18:54.348Z,7.80
2018-01-26T16:21:23.300Z,8.25
2018-01-26T16:23:51.435Z,7.97
2018-01-26T16:26:19.661Z,6.90
2018-01-26T16:28:47.783Z,6.60
2018-01-26T16:31:15.929Z,6.97
2018-01-26T16:33:44.094Z,8.00
2018-01-26T16:36:12.328Z,9.05
2018-01-26T16:38:40.519Z,9.50
2018-01-26T16:41:08.796Z,10.13
2018-01-26T16:43:36.957Z,9.02
2018-01-26T16:46:05.889Z,11.20
2018-01-26T16:48:34.021Z,9.88
2018-01-26T16:51:02.179Z,8.25
2018-01-26T16:53:30.304Z,11.27
2018-01-26T16:55:58.435Z,10.32
2018-01-26T16:58:26.561Z,10.15
2018-01-26T17:00:54.696Z,12.60
2018-01-26T17:03:22.851Z,10.82
2018-01-26T17:05:51.027Z,12.00
2018-01-26T17:08:19.165Z,9.88
2018-01-26T17:10:47.301Z,10.45
2018-01-26T17:13:15.545Z,13.10
2018-01-26T17:15:43.669Z,10.25
2018-01-26T17:18:12.097Z,11.07
2018-01-26T17:20:40.248Z,11.43
2018-01-26T17:23:08.418Z,11.40
2018-01-26T17:25:36.564Z,11.38
2018-01-26T17:28:04.700Z,11.20
2018-01-26T17:30:32.851Z,12.88
2018-01-26T17:33:01.737Z,9.70
2018-01-26T17:35:30.964Z,10.07
2018-01-26T17:37:59.136Z,10.68
2018-01-26T17:40:27.263Z,10.48
2018-01-26T17:42:55.412Z,9.15
2018-01-26T17:45:23.536Z,10.57
2018-01-26T17:47:51.671Z,10.10
2018-01-26T17:50:19.820Z,9.05
2018-01-26T17:52:47.979Z,12.23
2018-01-26T17:55:16.140Z,14.35
2018-01-26T17:57:44.324Z,18.27
2018-01-26T18:00:12.592Z,12.98
2018-01-26T18:02:41.509Z,13.52
2018-01-26T18:05:09.656Z,23.30
2018-01-26T18:07:37.940Z,13.32
2018-01-26T18:10:06.092Z,13.30
2018-01-26T18:12:35.323Z,12.88
2018-01-26T18:15:03.511Z,14.25
2018-01-26T18:17:31.807Z,15.02
2018-01-26T18:19:59.921Z,19.15
2018-01-26T18:22:28.829Z,16.98
2018-01-26T18:24:56.976Z,15.30
2018-01-26T18:27:26.008Z,14.23
2018-01-26T18:29:54.156Z,14.13
2018-01-26T18:32:22.338Z,14.10
2018-01-26T18:34:50.476Z,13.18
2018-01-26T18:37:18.608Z,13.73
2018-01-26T18:39:46.756Z,12.10
2018-01-26T18:42:14.897Z,12.07
2018-01-26T18:44:43.059Z,11.18
2018-01-26T18:47:11.987Z,12.23
2018-01-26T18:49:40.116Z,13.55
2018-01-26T18:52:08.570Z,15.57
2018-01-26T18:54:36.710Z,12.93
2018-01-26T18:57:05.608Z,13.70
2018-01-26T18:59:33.760Z,14.15
2018-01-26T19:02:01.896Z,14.38
2018-01-26T19:04:30.123Z,12.85
2018-01-26T19:06:59.016Z,16.15
2018-01-26T19:09:28.267Z,13.55
2018-01-26T19:11:56.400Z,15.40
2018-01-26T19:14:24.541Z,15.75
2018-01-26T19:16:52.684Z,14.63
2018-01-26T19:19:20.823Z,15.65
2018-01-26T19:21:49.030Z,14.40
2018-01-26T19:24:17.182Z,15.63
2018-01-26T19:26:46.176Z,15.05
2018-01-26T19:29:14.348Z,14.90
2018-01-26T19:31:42.463Z,15.05
2018-01-26T19:34:10.605Z,14.90
2018-01-26T19:36:38.724Z,16.73
2018-01-26T19:39:06.880Z,14.75
2018-01-26T19:41:35.027Z,15.30
2018-01-26T19:44:03.172Z,16.20
2018-01-26T19:46:31.417Z,18.70
2018-01-26T19:48:59.586Z,16.23
2018-01-26T19:51:27.761Z,17.05
2018-01-26T19:53:55.897Z,16.37
2018-01-26T19:56:24.101Z,14.95
2018-01-26T19:58:52.442Z,16.50
2018-01-26T20:01:20.996Z,15.88
2018-01-26T20:04:01.741Z,17.85
2018-01-26T20:06:47.479Z,18.48
2018-01-26T20:09:15.614Z,17.85
2018-01-26T20:11:46.356Z,17.50
2018-01-26T20:14:20.190Z,18.48
2018-01-26T20:16:48.317Z,15.80
2018-01-26T20:19:16.467Z,18.10
2018-01-26T20:21:44.612Z,16.25
2018-01-26T20:24:12.760Z,17.20
2018-01-26T20:26:41.660Z,18.25
2018-01-26T20:29:10.561Z,16.83
2018-01-26T20:31:38.760Z,18.42
2018-01-26T20:34:06.904Z,16.20
2018-01-26T20:36:35.811Z,16.77
2018-01-26T20:39:04.036Z,16.70
2018-01-26T20:41:32.179Z,15.00
2018-01-26T20:44:00.311Z,16.40
2018-01-26T20:46:28.467Z,17.40
2018-01-26T20:48:57.400Z,17.10
2018-01-26T20:51:25.529Z,20.25
2018-01-26T20:53:53.675Z,32.20
2018-01-26T20:56:21.800Z,23.87
2018-01-26T20:58:49.957Z,19.48
2018-01-26T21:01:18.860Z,19.80
2018-01-26T21:03:47.776Z,17.60
2018-01-26T21:06:15.916Z,23.50
2018-01-26T21:08:44.840Z,18.75
2018-01-26T21:11:12.981Z,18.40
2018-01-26T21:13:41.878Z,18.12
2018-01-26T21:16:11.100Z,17.85
2018-01-26T21:18:39.240Z,19.70
2018-01-26T21:21:07.386Z,19.52
2018-01-26T21:23:35.537Z,16.85
2018-01-26T21:26:03.698Z,15.88
2018-01-26T21:28:31.856Z,26.87
2018-01-26T21:31:00.741Z,17.23
2018-01-26T21:33:29.656Z,16.30
2018-01-26T21:35:57.806Z,15.90
2018-01-26T21:38:26.697Z,15.65
2018-01-26T21:40:55.640Z,16.85
2018-01-26T21:43:23.771Z,15.95
2018-01-26T21:45:51.923Z,16.77
2018-01-26T21:48:20.811Z,16.17
2018-01-26T21:50:49.788Z,18.45
2018-01-26T21:53:17.916Z,15.73
2018-01-26T21:55:46.044Z,18.90
2018-01-26T21:58:14.178Z,20.90
2018-01-26T22:00:42.314Z,23.23
2018-01-26T22:03:11.256Z,19.30
2018-01-26T22:05:39.380Z,18.10
2018-01-26T22:08:08.300Z,20.17
2018-01-26T22:10:36.432Z,16.50
2018-01-26T22:13:05.623Z,17.35
2018-01-26T22:15:33.768Z,19.17
2018-01-26T22:18:01.883Z,19.08
2018-01-26T22:20:30.797Z,19.05
2018-01-26T22:22:58.934Z,18.40
2018-01-26T22:25:27.086Z,18.73
2018-01-26T22:27:55.204Z,35.22
2018-01-26T22:30:23.357Z,24.95
2018-01-26T22:32:52.251Z,29.63
2018-01-26T22:35:21.148Z,20.15
2018-01-26T22:37:50.064Z,21.62
2018-01-26T22:40:18.211Z,20.17
2018-01-26T22:42:47.125Z,23.62
2018-01-26T22:45:15.259Z,25.92
2018-01-26T22:47:43.417Z,43.08
2018-01-26T22:50:11.614Z,37.25
2018-01-26T22:52:39.737Z,24.77
2018-01-26T22:55:07.893Z,18.90
2018-01-26T22:57:36.037Z,20.23
2018-01-26T23:00:04.319Z,19.55
2018-01-26T23:02:33.226Z,20.55
2018-01-26T23:05:02.205Z,20.62
2018-01-26T23:07:31.145Z,18.40
2018-01-26T23:09:59.302Z,20.33
2018-01-26T23:12:27.697Z,26.10
2018-01-26T23:14:55.848Z,21.92
2018-01-26T23:17:24.058Z,20.65
2018-01-26T23:19:52.536Z,19.42
2018-01-26T23:22:21.247Z,21.12
2018-01-26T23:24:50.040Z,26.95
2018-01-26T23:27:18.260Z,23.15
2018-01-26T23:29:46.399Z,23.60
2018-01-26T23:32:14.628Z,24.42
2018-01-26T23:34:42.835Z,23.73
2018-01-26T23:37:12.808Z,22.10
2018-01-26T23:39:41.311Z,21.05
2018-01-26T23:42:09.490Z,20.40
2018-01-26T23:44:37.615Z,20.42
2018-01-26T23:47:06.692Z,19.15
2018-01-26T23:49:35.056Z,22.70
2018-01-26T23:54:37.645Z,24.35
2018-01-26T23:57:05.789Z,20.37
2018-01-26T23:59:33.928Z,25.70
